Terminal Aerodrome Forecast
Issued by NWS Charleston, WV

Current Version | Previous Version | Text Only | Print | Product List | Glossary Off
Versions: 1 2 3 4 5 6 7 8 9 10 11 12 13 14 15 16 17 18 19 20 21 22 23 24 25 26 27 28 29 30 31 32 33

000
FTUS41 KRLX 302141 AAA
TAFCRW
TAF AMD
KCRW 302141Z 3022/0118 28010KT 6SM TSRA BKN040CB
      TEMPO 3022/3023 34015G30KT 2SM TSRA BKN030CB OVC050
     FM010100 32005KT P6SM BKN040
     FM010600 28004KT 4SM BR BKN035
     FM011000 00000KT 3SM BR BKN015
     FM011300 00000KT P6SM SCT015=

USA.gov is the U.S. government's official web portal to all federal, state and local government web resources and services.